createdAt,value
2023-06-15T00:03:01.850Z,60.91
2023-06-15T00:06:04.147Z,61.41
2023-06-15T00:09:06.444Z,61.28
2023-06-15T00:12:10.608Z,61.59
2023-06-15T00:15:17.308Z,61.38
2023-06-15T00:18:20.373Z,61.39
2023-06-15T00:21:27.423Z,62.06
2023-06-15T00:24:29.992Z,62.35
2023-06-15T00:27:32.416Z,62.35
2023-06-15T00:30:34.768Z,62.48
2023-06-15T00:33:37.148Z,62.73
2023-06-15T00:36:42.805Z,62.71
2023-06-15T00:39:50.469Z,63.19
2023-06-15T00:42:55.362Z,62.99
2023-06-15T00:46:00.568Z,63.45
2023-06-15T00:49:04.533Z,64.04
2023-06-15T00:52:10.145Z,64.17
2023-06-15T00:55:20.075Z,63.79
2023-06-15T00:58:23.213Z,63.55
2023-06-15T01:01:27.518Z,63.09
2023-06-15T01:04:32.473Z,62.93
2023-06-15T01:07:36.408Z,63.54
2023-06-15T01:10:42.079Z,63.57
2023-06-15T01:13:50.094Z,63.69
2023-06-15T01:17:00.602Z,63.54
2023-06-15T01:20:06.231Z,64.06
2023-06-15T01:23:14.408Z,64.05
2023-06-15T01:26:25.199Z,64.24
2023-06-15T01:29:36.551Z,64.65
2023-06-15T01:32:38.948Z,65.08
2023-06-15T01:35:44.010Z,65.08
2023-06-15T01:38:55.641Z,64.93
2023-06-15T01:42:02.340Z,65.39
2023-06-15T01:45:05.727Z,65.85
2023-06-15T01:48:11.302Z,66.07
2023-06-15T01:51:21.010Z,66.27
2023-06-15T01:54:23.333Z,67.07
2023-06-15T01:57:32.057Z,67.11
2023-06-15T02:00:46.203Z,67.07
2023-06-15T02:03:48.523Z,67.20
2023-06-15T02:06:50.760Z,67.50
2023-06-15T02:09:54.244Z,67.61
2023-06-15T02:13:00.879Z,67.54
2023-06-15T02:16:08.234Z,67.67
2023-06-15T02:19:10.564Z,68.51
2023-06-15T02:22:14.188Z,68.68
2023-06-15T02:25:16.608Z,68.62
2023-06-15T02:28:19.149Z,69.71
2023-06-15T02:31:26.312Z,69.67
2023-06-15T02:34:31.770Z,69.85
2023-06-15T02:37:39.560Z,70.43
2023-06-15T02:40:42.198Z,70.96
2023-06-15T02:43:44.576Z,71.13
2023-06-15T02:46:49.391Z,71.84
2023-06-15T02:49:51.768Z,71.67
2023-06-15T02:52:54.589Z,72.52
2023-06-15T02:55:58.304Z,72.06
2023-06-15T02:59:01.404Z,72.50
2023-06-15T03:02:34.966Z,72.52
2023-06-15T03:05:40.709Z,73.02
2023-06-15T03:08:46.077Z,73.04
2023-06-15T03:11:54.965Z,73.52
2023-06-15T03:15:05.704Z,73.55
2023-06-15T03:18:13.096Z,73.21
2023-06-15T03:21:21.291Z,73.11
2023-06-15T03:24:26.970Z,73.16
2023-06-15T03:27:31.058Z,73.60
2023-06-15T03:30:35.880Z,73.93
2023-06-15T03:33:43.748Z,73.54
2023-06-15T03:36:52.594Z,73.76
2023-06-15T03:39:58.295Z,73.35
2023-06-15T03:43:03.541Z,72.67
2023-06-15T03:46:14.577Z,72.93
2023-06-15T03:49:19.877Z,72.56
2023-06-15T03:52:22.825Z,72.61
2023-06-15T03:55:26.344Z,72.86
2023-06-15T03:58:29.139Z,71.76
2023-06-15T04:01:34.103Z,71.04
2023-06-15T04:04:40.828Z,70.65
2023-06-15T04:07:45.538Z,70.77
2023-06-15T04:10:47.964Z,70.02
2023-06-15T04:13:57.615Z,69.22
2023-06-15T04:16:59.957Z,68.89
2023-06-15T04:20:05.783Z,67.99
2023-06-15T04:23:10.044Z,66.93
2023-06-15T04:26:14.484Z,67.25
2023-06-15T04:29:19.631Z,66.08
2023-06-15T04:32:26.881Z,65.38
2023-06-15T04:35:33.361Z,64.58
2023-06-15T04:38:38.044Z,63.79
2023-06-15T04:41:43.522Z,63.36
2023-06-15T04:44:48.593Z,62.37
2023-06-15T04:47:51.720Z,62.41
2023-06-15T04:50:54.845Z,62.09
2023-06-15T04:53:57.395Z,62.13
2023-06-15T04:57:02.021Z,60.94
2023-06-15T05:00:08.195Z,60.61
2023-06-15T05:03:15.252Z,60.16
2023-06-15T05:06:18.219Z,59.34
2023-06-15T05:09:26.008Z,59.51
2023-06-15T05:12:29.380Z,58.38
2023-06-15T05:15:34.680Z,57.36
2023-06-15T05:18:39.423Z,56.84
2023-06-15T05:21:44.353Z,56.23
2023-06-15T05:24:46.777Z,55.84
2023-06-15T05:27:51.998Z,54.49
2023-06-15T05:30:55.231Z,53.97
2023-06-15T05:34:00.164Z,53.34
2023-06-15T05:37:03.169Z,53.16
2023-06-15T05:40:11.113Z,53.08
2023-06-15T05:43:13.729Z,52.60
2023-06-15T05:46:16.312Z,51.98
2023-06-15T05:49:18.642Z,50.89
2023-06-15T05:52:21.495Z,51.12
2023-06-15T05:55:24.766Z,50.94
2023-06-15T05:58:29.533Z,49.94
2023-06-15T06:01:32.156Z,49.46
2023-06-15T06:04:37.245Z,49.55
2023-06-15T06:07:41.781Z,49.67
2023-06-15T06:10:44.096Z,48.82
2023-06-15T06:14:01.000Z,48.21
2023-06-15T06:17:06.692Z,47.88
2023-06-15T06:20:10.953Z,48.59
2023-06-15T06:23:13.411Z,47.81
2023-06-15T06:26:15.787Z,48.00
2023-06-15T06:29:18.051Z,45.71
2023-06-15T06:32:21.700Z,47.09
2023-06-15T06:35:26.322Z,45.40
2023-06-15T06:38:28.914Z,44.14
2023-06-15T06:41:33.584Z,42.43
2023-06-15T06:44:38.295Z,41.63
2023-06-15T06:47:42.831Z,41.32
2023-06-15T06:50:45.323Z,40.38
2023-06-15T06:53:48.214Z,40.25
2023-06-15T06:56:55.831Z,39.70
2023-06-15T06:59:58.170Z,39.49
2023-06-15T07:03:02.842Z,38.57
2023-06-15T07:06:07.590Z,36.79
2023-06-15T07:09:09.885Z,37.63
2023-06-15T07:12:14.322Z,37.03
2023-06-15T07:15:19.041Z,37.01
2023-06-15T07:18:24.219Z,34.71
2023-06-15T07:21:26.951Z,34.32
2023-06-15T07:24:29.293Z,33.44
2023-06-15T07:27:31.752Z,33.39
2023-06-15T07:30:36.363Z,33.24
2023-06-15T07:33:41.803Z,33.01
2023-06-15T07:36:44.200Z,33.55
2023-06-15T07:39:46.595Z,33.84
2023-06-15T07:42:48.953Z,33.29
2023-06-15T07:45:53.889Z,33.41
2023-06-15T07:49:01.395Z,32.89
2023-06-15T07:52:10.600Z,31.52
2023-06-15T07:55:13.470Z,32.99
2023-06-15T07:58:15.990Z,32.31
2023-06-15T08:01:24.020Z,30.02
2023-06-15T08:04:26.381Z,29.56
2023-06-15T08:07:31.575Z,28.04
2023-06-15T08:10:36.513Z,30.09
2023-06-15T08:13:41.320Z,28.77
2023-06-15T08:16:43.645Z,27.13
2023-06-15T08:19:46.887Z,26.20
2023-06-15T08:22:49.300Z,26.79
2023-06-15T08:25:53.928Z,27.20
2023-06-15T08:29:09.803Z,25.99
2023-06-15T08:32:23.919Z,24.97
2023-06-15T08:35:26.337Z,23.87
2023-06-15T08:38:28.663Z,23.49
2023-06-15T08:41:31.336Z,23.23
2023-06-15T08:44:34.994Z,23.79
2023-06-15T08:47:38.092Z,23.88
2023-06-15T08:50:43.866Z,23.81
2023-06-15T08:53:51.365Z,23.84
2023-06-15T08:56:56.638Z,25.11
2023-06-15T09:00:00.268Z,23.91
2023-06-15T09:03:08.601Z,23.81
2023-06-15T09:06:14.089Z,23.82
2023-06-15T09:09:18.672Z,22.12
2023-06-15T09:12:23.399Z,23.06
2023-06-15T09:15:28.796Z,23.56
2023-06-15T09:18:46.128Z,23.06
2023-06-15T09:21:54.942Z,23.70
2023-06-15T09:24:57.318Z,23.31
2023-06-15T09:28:10.463Z,24.06
2023-06-15T09:31:31.657Z,24.35
2023-06-15T09:34:38.268Z,25.07
2023-06-15T09:37:40.863Z,24.64
2023-06-15T09:40:45.600Z,25.68
2023-06-15T09:43:52.386Z,25.92
2023-06-15T09:46:58.613Z,26.49
2023-06-15T09:50:01.051Z,27.36
2023-06-15T09:53:03.863Z,28.38
2023-06-15T09:56:17.305Z,27.61
2023-06-15T09:59:29.525Z,26.63
2023-06-15T10:02:32.969Z,26.57
2023-06-15T10:05:44.373Z,27.47
2023-06-15T10:08:54.289Z,26.34
2023-06-15T10:12:07.871Z,27.59
2023-06-15T10:15:19.484Z,26.70
2023-06-15T10:18:23.757Z,27.14
2023-06-15T10:21:30.259Z,26.46
2023-06-15T10:24:33.737Z,27.30
2023-06-15T10:27:36.449Z,26.90
2023-06-15T10:31:07.147Z,28.05
2023-06-15T10:34:42.596Z,27.90
2023-06-15T10:37:44.965Z,27.41
2023-06-15T10:40:49.271Z,28.17
2023-06-15T10:44:02.835Z,27.92
2023-06-15T10:47:09.898Z,28.14
2023-06-15T10:50:17.157Z,28.79
2023-06-15T10:53:27.928Z,28.78
2023-06-15T10:56:35.464Z,28.36
2023-06-15T10:59:50.836Z,28.59
2023-06-15T11:03:00.858Z,29.30
2023-06-15T11:06:16.622Z,29.37
2023-06-15T11:09:22.024Z,29.47
2023-06-15T11:12:40.920Z,30.45
2023-06-15T11:15:43.836Z,29.39
2023-06-15T11:18:58.461Z,29.38
2023-06-15T11:22:02.921Z,29.03
2023-06-15T11:25:12.450Z,28.62
2023-06-15T11:28:35.018Z,26.84
2023-06-15T11:31:42.145Z,26.81
2023-06-15T11:34:46.650Z,27.61
2023-06-15T11:37:48.925Z,28.30
2023-06-15T11:40:51.766Z,28.26
2023-06-15T11:43:59.868Z,28.92
2023-06-15T11:47:03.084Z,28.81
2023-06-15T11:50:08.975Z,29.14
2023-06-15T11:53:20.265Z,29.19
2023-06-15T11:56:26.127Z,29.51
2023-06-15T11:59:36.615Z,29.11
2023-06-15T12:02:42.455Z,28.95
2023-06-15T12:05:46.092Z,28.15
2023-06-15T12:08:56.751Z,28.14
2023-06-15T12:11:59.159Z,28.84
2023-06-15T12:15:03.091Z,29.11
2023-06-15T12:18:10.750Z,28.39
2023-06-15T12:21:19.968Z,28.98
2023-06-15T12:24:28.462Z,29.01
2023-06-15T12:27:34.821Z,28.71
2023-06-15T12:30:40.756Z,28.45
2023-06-15T12:33:53.593Z,28.35
2023-06-15T12:36:57.413Z,28.47
2023-06-15T12:40:02.590Z,27.94
2023-06-15T12:43:05.052Z,28.57
2023-06-15T12:46:07.722Z,28.52
2023-06-15T12:49:14.059Z,28.07
2023-06-15T12:52:21.210Z,28.25
2023-06-15T12:55:26.672Z,28.47
2023-06-15T12:58:33.210Z,27.85
2023-06-15T13:01:37.767Z,27.30
2023-06-15T13:04:46.258Z,27.80
2023-06-15T13:07:49.196Z,27.83
2023-06-15T13:10:54.783Z,27.44
2023-06-15T13:13:59.512Z,27.19
2023-06-15T13:17:02.360Z,26.53
2023-06-15T13:20:14.408Z,27.13
2023-06-15T13:23:16.760Z,27.43
2023-06-15T13:26:19.046Z,27.43
2023-06-15T13:29:21.327Z,27.91
2023-06-15T13:32:26.022Z,26.93
2023-06-15T13:35:30.637Z,26.42
2023-06-15T13:38:36.017Z,25.84
2023-06-15T13:41:38.387Z,25.94
2023-06-15T13:44:41.050Z,25.83
2023-06-15T13:47:43.874Z,26.08
2023-06-15T13:50:48.557Z,25.55
2023-06-15T13:53:50.884Z,25.38
2023-06-15T13:56:53.709Z,25.93
2023-06-15T13:59:56.291Z,25.80
2023-06-15T14:03:05.473Z,25.75
2023-06-15T14:06:10.850Z,26.57
2023-06-15T14:09:16.109Z,26.64
2023-06-15T14:12:21.320Z,26.25
2023-06-15T14:15:26.266Z,25.81
2023-06-15T14:18:31.403Z,26.30
2023-06-15T14:21:36.097Z,26.40
2023-06-15T14:24:41.497Z,26.58
2023-06-15T14:27:48.649Z,26.83
2023-06-15T14:30:54.442Z,27.45
2023-06-15T14:33:59.140Z,26.73
2023-06-15T14:37:01.540Z,27.55
2023-06-15T14:40:06.533Z,26.61
2023-06-15T14:43:11.027Z,26.77
2023-06-15T14:46:13.522Z,26.29
2023-06-15T14:49:18.865Z,26.87
2023-06-15T14:52:23.658Z,26.78
2023-06-15T14:55:26.237Z,26.46
2023-06-15T14:58:30.759Z,26.80
2023-06-15T15:01:39.560Z,27.87
2023-06-15T15:04:42.102Z,27.46
2023-06-15T15:07:46.960Z,27.15
2023-06-15T15:10:49.389Z,27.47
2023-06-15T15:13:51.737Z,28.18
2023-06-15T15:16:54.137Z,27.26
2023-06-15T15:19:58.842Z,27.88
2023-06-15T15:23:03.725Z,28.10
2023-06-15T15:26:09.291Z,28.05
2023-06-15T15:29:13.876Z,27.67
2023-06-15T15:32:18.586Z,28.26
2023-06-15T15:35:24.055Z,28.10
2023-06-15T15:38:26.421Z,28.45
2023-06-15T15:41:28.758Z,28.26
2023-06-15T15:44:33.352Z,27.97
2023-06-15T15:47:35.854Z,28.02
2023-06-15T15:50:39.160Z,28.17
2023-06-15T15:53:44.136Z,28.87
2023-06-15T15:56:46.280Z,28.13
2023-06-15T15:59:48.579Z,28.70
2023-06-15T16:02:51.045Z,28.58
2023-06-15T16:05:55.958Z,28.08
2023-06-15T16:08:58.268Z,28.60
2023-06-15T16:12:03.763Z,27.92
2023-06-15T16:15:12.208Z,28.24
2023-06-15T16:18:15.139Z,28.19
2023-06-15T16:21:17.452Z,28.75
2023-06-15T16:24:19.851Z,29.22
2023-06-15T16:27:24.410Z,29.30
2023-06-15T16:30:28.964Z,29.27
2023-06-15T16:33:33.862Z,29.79
2023-06-15T16:36:43.393Z,29.50
2023-06-15T16:39:50.680Z,29.34
2023-06-15T16:42:57.812Z,29.24
2023-06-15T16:46:02.361Z,29.47
2023-06-15T16:49:04.787Z,29.69
2023-06-15T16:52:11.644Z,29.12
2023-06-15T16:55:16.449Z,29.35
2023-06-15T16:58:22.670Z,29.11
2023-06-15T17:01:25.414Z,29.15
2023-06-15T17:04:28.274Z,29.35
2023-06-15T17:07:33.352Z,30.18
2023-06-15T17:10:35.546Z,30.41
2023-06-15T17:13:37.908Z,30.50
2023-06-15T17:16:40.868Z,30.72
2023-06-15T17:19:45.019Z,30.36
2023-06-15T17:22:52.297Z,30.30
2023-06-15T17:25:56.982Z,30.27
2023-06-15T17:28:59.512Z,30.27
2023-06-15T17:32:02.099Z,30.21
2023-06-15T17:35:04.930Z,30.90
2023-06-15T17:38:11.292Z,30.75
2023-06-15T17:41:15.654Z,30.74
2023-06-15T17:44:20.328Z,30.75
2023-06-15T17:47:25.405Z,31.00
2023-06-15T17:50:27.641Z,30.92
2023-06-15T17:53:33.496Z,31.24
2023-06-15T17:56:36.574Z,31.53
2023-06-15T17:59:41.673Z,32.29
2023-06-15T18:02:46.450Z,32.60
2023-06-15T18:05:52.132Z,32.69
2023-06-15T18:08:55.879Z,33.21
2023-06-15T18:11:58.455Z,32.92
2023-06-15T18:15:01.213Z,33.19
2023-06-15T18:18:04.467Z,33.68
2023-06-15T18:21:09.143Z,33.59
2023-06-15T18:24:13.080Z,33.06
2023-06-15T18:27:19.121Z,33.68
2023-06-15T18:30:21.636Z,33.94
2023-06-15T18:33:27.193Z,34.43
2023-06-15T18:36:30.106Z,35.02
2023-06-15T18:39:32.363Z,34.75
2023-06-15T18:42:40.295Z,34.56
2023-06-15T18:45:44.869Z,34.59
2023-06-15T18:48:49.558Z,35.25
2023-06-15T18:51:54.382Z,35.65
2023-06-15T18:54:58.867Z,36.07
2023-06-15T18:58:04.930Z,35.87
2023-06-15T19:01:07.447Z,36.01
2023-06-15T19:04:12.121Z,36.77
2023-06-15T19:07:15.564Z,37.66
2023-06-15T19:10:18.038Z,37.81
2023-06-15T19:13:26.271Z,38.69
2023-06-15T19:16:32.019Z,39.06
2023-06-15T19:19:39.697Z,37.97
2023-06-15T19:22:45.557Z,36.99
2023-06-15T19:25:53.806Z,37.47
2023-06-15T19:28:56.375Z,37.52
2023-06-15T19:31:58.658Z,37.45
2023-06-15T19:35:01.032Z,37.40
2023-06-15T19:38:05.925Z,37.56
2023-06-15T19:41:08.643Z,38.30
2023-06-15T19:44:13.237Z,38.80
2023-06-15T19:47:18.254Z,39.25
2023-06-15T19:50:20.845Z,39.28
2023-06-15T19:53:23.755Z,39.71
2023-06-15T19:56:28.356Z,39.68
2023-06-15T19:59:32.964Z,40.16
2023-06-15T20:02:39.871Z,40.52
2023-06-15T20:05:42.254Z,41.28
2023-06-15T20:08:49.455Z,41.38
2023-06-15T20:11:52.194Z,41.64
2023-06-15T20:14:56.708Z,41.74
2023-06-15T20:18:01.471Z,41.93
2023-06-15T20:21:06.793Z,41.94
2023-06-15T20:24:09.091Z,42.21
2023-06-15T20:27:11.855Z,42.86
2023-06-15T20:30:16.641Z,43.51
2023-06-15T20:33:19.114Z,43.16
2023-06-15T20:36:21.630Z,43.28
2023-06-15T20:39:30.031Z,43.58
2023-06-15T20:42:32.521Z,43.64
2023-06-15T20:45:37.629Z,43.91
2023-06-15T20:48:39.836Z,43.81
2023-06-15T20:51:42.049Z,44.09
2023-06-15T20:54:44.591Z,43.95
2023-06-15T20:57:46.896Z,43.67
2023-06-15T21:00:49.474Z,43.75
2023-06-15T21:03:52.553Z,44.35
2023-06-15T21:06:54.947Z,45.07
2023-06-15T21:09:57.873Z,45.33
2023-06-15T21:13:02.676Z,45.70
2023-06-15T21:16:08.450Z,46.09
2023-06-15T21:19:11.027Z,46.32
2023-06-15T21:22:13.675Z,46.70
2023-06-15T21:25:18.902Z,46.79
2023-06-15T21:28:21.308Z,46.02
2023-06-15T21:31:23.922Z,44.90
2023-06-15T21:34:27.271Z,45.27
2023-06-15T21:37:29.622Z,45.28
2023-06-15T21:40:34.860Z,45.32
2023-06-15T21:43:39.326Z,45.70
2023-06-15T21:46:44.250Z,46.07
2023-06-15T21:49:46.961Z,46.26
2023-06-15T21:52:51.559Z,46.44
2023-06-15T21:55:53.972Z,46.43
2023-06-15T21:58:56.290Z,46.49
2023-06-15T22:01:58.765Z,46.25
2023-06-15T22:05:01.268Z,46.14
2023-06-15T22:08:06.347Z,46.11
2023-06-15T22:11:11.717Z,45.94
2023-06-15T22:14:18.611Z,46.00
2023-06-15T22:17:22.302Z,46.22
2023-06-15T22:20:28.135Z,46.06
2023-06-15T22:23:33.642Z,46.14
2023-06-15T22:26:45.557Z,46.21
2023-06-15T22:29:52.998Z,47.53
2023-06-15T22:32:56.097Z,47.61
2023-06-15T22:36:00.834Z,47.73
2023-06-15T22:39:03.627Z,48.37
2023-06-15T22:42:09.791Z,48.85
2023-06-15T22:45:17.521Z,49.04
2023-06-15T22:48:23.719Z,49.13
2023-06-15T22:51:30.755Z,49.77
2023-06-15T22:54:33.258Z,49.38
2023-06-15T22:57:38.001Z,49.30
2023-06-15T23:00:42.572Z,49.40
2023-06-15T23:03:44.906Z,48.04
2023-06-15T23:06:48.359Z,47.71
2023-06-15T23:09:53.054Z,47.67
2023-06-15T23:12:57.421Z,48.30
2023-06-15T23:16:01.275Z,48.71
2023-06-15T23:19:06.395Z,49.00
2023-06-15T23:22:12.404Z,49.47
2023-06-15T23:25:17.000Z,50.00
2023-06-15T23:28:20.555Z,49.78
2023-06-15T23:31:30.901Z,50.47
2023-06-15T23:34:36.143Z,50.56
2023-06-15T23:37:38.437Z,50.80
2023-06-15T23:40:44.001Z,51.32
2023-06-15T23:43:51.128Z,51.35
2023-06-15T23:46:53.440Z,51.40
2023-06-15T23:49:58.708Z,51.78
2023-06-15T23:53:01.122Z,51.73
2023-06-15T23:56:06.563Z,52.08
2023-06-15T23:59:09.442Z,52.71
